createdAt,value
2019-02-25T00:01:09.255Z,103706.81
2019-02-25T00:03:42.486Z,103699.03
2019-02-25T00:06:15.730Z,103697.85
2019-02-25T00:08:48.961Z,103702.04
2019-02-25T00:11:22.211Z,103700.74
2019-02-25T00:13:56.418Z,103695.76
2019-02-25T00:16:29.662Z,103695.28
2019-02-25T00:19:02.889Z,103691.45
2019-02-25T00:21:36.140Z,103690.05
2019-02-25T00:24:09.363Z,103693.37
2019-02-25T00:26:43.582Z,103688.66
2019-02-25T00:29:16.812Z,103689.83
2019-02-25T00:31:50.066Z,103696.44
2019-02-25T00:34:24.267Z,103691.95
2019-02-25T00:36:57.516Z,103689.00
2019-02-25T00:39:30.750Z,103690.59
2019-02-25T00:42:04.001Z,103685.00
2019-02-25T00:44:37.230Z,103685.20
2019-02-25T00:47:10.478Z,103682.20
2019-02-25T00:49:43.707Z,103677.95
2019-02-25T00:52:16.960Z,103678.30
2019-02-25T00:54:50.189Z,103655.13
2019-02-25T00:57:23.429Z,103673.88
2019-02-25T00:59:56.937Z,103652.42
2019-02-25T01:02:30.173Z,103685.41
2019-02-25T01:05:04.440Z,103681.86
2019-02-25T01:07:37.693Z,103682.28
2019-02-25T01:10:12.055Z,103687.94
2019-02-25T01:12:45.378Z,103688.34
2019-02-25T01:15:18.610Z,103683.10
2019-02-25T01:17:51.862Z,103676.62
2019-02-25T01:20:25.088Z,103676.09
2019-02-25T01:22:58.338Z,103678.74
2019-02-25T01:25:31.579Z,103669.61
2019-02-25T01:28:04.826Z,103665.50
2019-02-25T01:30:38.058Z,103661.27
2019-02-25T01:33:11.305Z,103664.83
2019-02-25T01:35:44.536Z,103664.15
2019-02-25T01:38:17.793Z,103667.56
2019-02-25T01:40:51.025Z,103665.23
2019-02-25T01:43:24.268Z,103664.15
2019-02-25T01:45:58.469Z,103660.87
2019-02-25T01:48:31.709Z,103657.45
2019-02-25T01:51:04.949Z,103653.03
2019-02-25T01:53:38.226Z,103652.50
2019-02-25T01:56:11.459Z,103651.53
2019-02-25T01:58:44.701Z,103644.92
2019-02-25T02:01:17.931Z,103644.98
2019-02-25T02:03:51.201Z,103637.21
2019-02-25T02:06:24.428Z,103634.68
2019-02-25T02:08:57.672Z,103631.28
2019-02-25T02:11:31.051Z,103638.70
2019-02-25T02:14:04.307Z,103643.30
2019-02-25T02:16:37.531Z,103635.64
2019-02-25T02:19:10.782Z,103618.40
2019-02-25T02:21:44.015Z,103628.92
2019-02-25T02:24:17.276Z,103618.33
2019-02-25T02:26:50.502Z,103606.60
2019-02-25T02:29:23.763Z,103614.44
2019-02-25T02:31:57.002Z,103608.19
2019-02-25T02:34:30.244Z,103600.80
2019-02-25T02:37:03.480Z,103608.09
2019-02-25T02:39:36.724Z,103600.67
2019-02-25T02:42:14.526Z,103604.56
2019-02-25T02:44:50.320Z,103599.26
2019-02-25T02:47:29.483Z,103602.73
2019-02-25T02:50:08.768Z,103606.68
2019-02-25T02:52:42.001Z,103612.27
2019-02-25T02:55:15.256Z,103609.15
2019-02-25T02:57:48.489Z,103604.58
2019-02-25T03:00:21.741Z,103613.30
2019-02-25T03:02:54.962Z,103609.05
2019-02-25T03:05:28.208Z,103611.37
2019-02-25T03:08:01.439Z,103604.06
2019-02-25T03:10:34.684Z,103594.78
2019-02-25T03:13:09.194Z,103599.55
2019-02-25T03:15:42.425Z,103595.73
2019-02-25T03:18:15.652Z,103601.57
2019-02-25T03:20:48.908Z,103604.23
2019-02-25T03:23:22.146Z,103599.50
2019-02-25T03:25:55.392Z,103597.74
2019-02-25T03:28:28.623Z,103603.52
2019-02-25T03:31:01.890Z,103605.16
2019-02-25T03:33:36.086Z,103610.20
2019-02-25T03:36:09.336Z,103611.49
2019-02-25T03:38:42.568Z,103612.45
2019-02-25T03:41:15.813Z,103607.78
2019-02-25T03:43:50.346Z,103603.67
2019-02-25T03:46:23.596Z,103605.09
2019-02-25T03:48:56.820Z,103612.67
2019-02-25T03:51:30.063Z,103615.80
2019-02-25T03:54:03.299Z,103610.80
2019-02-25T03:56:36.542Z,103607.20
2019-02-25T03:59:09.773Z,103612.23
2019-02-25T04:01:43.024Z,103614.30
2019-02-25T04:04:16.252Z,103622.36
2019-02-25T04:06:50.468Z,103632.38
2019-02-25T04:09:23.699Z,103629.39
2019-02-25T04:11:56.944Z,103628.69
2019-02-25T04:14:30.176Z,103636.62
2019-02-25T04:17:03.428Z,103644.16
2019-02-25T04:19:36.654Z,103657.45
2019-02-25T04:22:09.898Z,103657.94
2019-02-25T04:24:43.136Z,103655.58
2019-02-25T04:27:16.393Z,103656.08
2019-02-25T04:29:49.630Z,103648.59
2019-02-25T04:32:23.169Z,103648.95
2019-02-25T04:34:56.401Z,103646.91
2019-02-25T04:37:29.652Z,103642.45
2019-02-25T04:40:03.651Z,103641.16
2019-02-25T04:42:36.891Z,103640.02
2019-02-25T04:45:15.428Z,103627.45
2019-02-25T04:47:48.660Z,103624.36
2019-02-25T04:50:21.906Z,103617.58
2019-02-25T04:52:55.146Z,103616.66
2019-02-25T04:55:28.384Z,103608.77
2019-02-25T04:58:01.627Z,103610.83
2019-02-25T05:00:34.863Z,103613.42
2019-02-25T05:03:08.116Z,103614.19
2019-02-25T05:05:41.347Z,103611.27
2019-02-25T05:08:14.631Z,103605.47
2019-02-25T05:10:47.810Z,103601.23
2019-02-25T05:13:21.064Z,103599.84
2019-02-25T05:15:54.295Z,103597.77
2019-02-25T05:18:27.555Z,103593.42
2019-02-25T05:21:00.798Z,103592.53
2019-02-25T05:23:34.353Z,103590.92
2019-02-25T05:26:07.589Z,103595.28
2019-02-25T05:28:40.852Z,103594.20
2019-02-25T05:31:14.077Z,103590.36
2019-02-25T05:33:47.326Z,103580.19
2019-02-25T05:36:20.552Z,103589.69
2019-02-25T05:38:53.808Z,103591.68
2019-02-25T05:41:27.040Z,103592.30
2019-02-25T05:44:00.281Z,103599.36
2019-02-25T05:46:33.520Z,103602.31
2019-02-25T05:49:06.757Z,103610.50
2019-02-25T05:51:39.992Z,103603.23
2019-02-25T05:54:13.236Z,103608.28
2019-02-25T05:56:46.468Z,103617.39
2019-02-25T05:59:19.723Z,103633.61
2019-02-25T06:01:52.957Z,103644.82
2019-02-25T06:04:26.202Z,103648.07
2019-02-25T06:06:59.436Z,103643.88
2019-02-25T06:09:32.681Z,103641.64
2019-02-25T06:12:05.915Z,103640.28
2019-02-25T06:14:39.159Z,103638.55
2019-02-25T06:17:12.389Z,103639.14
2019-02-25T06:19:45.637Z,103646.98
2019-02-25T06:22:18.891Z,103663.56
2019-02-25T06:24:52.115Z,103659.97
2019-02-25T06:27:30.774Z,103661.95
2019-02-25T06:30:00.345Z,103660.97
2019-02-25T06:32:33.538Z,103663.05
2019-02-25T06:35:07.828Z,103676.73
2019-02-25T06:37:41.058Z,103677.86
2019-02-25T06:40:18.529Z,103680.56
2019-02-25T06:42:51.759Z,103689.95
2019-02-25T06:45:31.306Z,103691.80
2019-02-25T06:48:04.558Z,103695.78
2019-02-25T06:50:38.866Z,103699.26
2019-02-25T06:53:12.114Z,103702.03
2019-02-25T06:55:45.370Z,103710.33
2019-02-25T06:58:18.605Z,103712.80
2019-02-25T07:00:51.859Z,103718.59
2019-02-25T07:03:25.094Z,103718.00
2019-02-25T07:05:58.352Z,103712.41
2019-02-25T07:08:31.583Z,103715.30
2019-02-25T07:11:04.832Z,103715.20
2019-02-25T07:13:38.069Z,103708.37
2019-02-25T07:16:11.310Z,103699.36
2019-02-25T07:18:44.555Z,103713.47
2019-02-25T07:21:17.798Z,103719.05
2019-02-25T07:23:51.026Z,103715.73
2019-02-25T07:26:26.986Z,103707.70
2019-02-25T07:29:00.196Z,103717.05
2019-02-25T07:31:33.446Z,103719.84
2019-02-25T07:34:06.677Z,103715.67
2019-02-25T07:36:39.924Z,103718.59
2019-02-25T07:39:13.149Z,103730.06
2019-02-25T07:41:46.392Z,103729.88
2019-02-25T07:44:19.621Z,103724.53
2019-02-25T07:46:52.872Z,103719.98
2019-02-25T07:49:26.127Z,103715.14
2019-02-25T07:51:59.387Z,103717.14
2019-02-25T07:54:32.623Z,103727.08
2019-02-25T07:57:05.860Z,103725.77
2019-02-25T07:59:39.095Z,103722.34
2019-02-25T08:02:12.337Z,103734.92
2019-02-25T08:04:45.565Z,103738.77
2019-02-25T08:07:18.808Z,103745.45
2019-02-25T08:09:52.036Z,103746.86
2019-02-25T08:12:25.606Z,103750.60
2019-02-25T08:14:58.837Z,103745.41
2019-02-25T08:17:32.092Z,103754.97
2019-02-25T08:20:05.962Z,103753.06
2019-02-25T08:22:40.290Z,103754.31
2019-02-25T08:25:13.527Z,103751.72
2019-02-25T08:27:46.780Z,103758.48
2019-02-25T08:30:20.009Z,103754.59
2019-02-25T08:32:53.262Z,103757.27
2019-02-25T08:35:44.787Z,103753.66
2019-02-25T08:38:18.014Z,103763.69
2019-02-25T08:40:52.759Z,103766.28
2019-02-25T08:43:26.008Z,103765.48
2019-02-25T08:45:59.249Z,103758.99
2019-02-25T08:48:32.495Z,103754.26
2019-02-25T08:51:06.704Z,103753.89
2019-02-25T08:53:40.963Z,103747.40
2019-02-25T08:56:14.199Z,103744.33
2019-02-25T08:58:47.451Z,103743.03
2019-02-25T09:01:20.697Z,103743.03
2019-02-25T09:03:53.951Z,103746.56
2019-02-25T09:06:27.190Z,103744.44
2019-02-25T09:09:00.418Z,103749.35
2019-02-25T09:11:35.133Z,103747.64
2019-02-25T09:14:08.393Z,103745.04
2019-02-25T09:16:41.634Z,103745.51
2019-02-25T09:19:14.885Z,103742.95
2019-02-25T09:21:48.126Z,103740.41
2019-02-25T09:24:21.384Z,103740.55
2019-02-25T09:26:54.614Z,103748.86
2019-02-25T09:29:27.856Z,103750.58
2019-02-25T09:32:01.095Z,103747.09
2019-02-25T09:34:35.407Z,103736.33
2019-02-25T09:37:08.637Z,103739.34
2019-02-25T09:39:42.142Z,103730.71
2019-02-25T09:42:17.000Z,103731.59
2019-02-25T09:44:50.260Z,103733.91
2019-02-25T09:47:23.486Z,103731.78
2019-02-25T09:49:56.731Z,103724.08
2019-02-25T09:52:29.971Z,103728.86
2019-02-25T09:55:04.156Z,103722.36
2019-02-25T09:57:37.378Z,103723.33
2019-02-25T10:00:16.031Z,103719.89
2019-02-25T10:02:49.274Z,103719.94
2019-02-25T10:05:22.997Z,103716.50
2019-02-25T10:07:56.236Z,103715.16
2019-02-25T10:10:29.497Z,103716.04
2019-02-25T10:13:02.735Z,103717.29
2019-02-25T10:15:36.060Z,103720.41
2019-02-25T10:18:09.286Z,103711.81
2019-02-25T10:20:42.539Z,103708.09
2019-02-25T10:23:15.777Z,103699.68
2019-02-25T10:25:49.030Z,103698.89
2019-02-25T10:28:22.267Z,103694.70
2019-02-25T10:30:55.507Z,103694.53
2019-02-25T10:33:28.744Z,103688.81
2019-02-25T10:36:01.987Z,103685.20
2019-02-25T10:38:35.214Z,103681.72
2019-02-25T10:41:08.464Z,103682.55
2019-02-25T10:43:41.683Z,103689.89
2019-02-25T10:46:15.929Z,103684.64
2019-02-25T10:48:54.249Z,103688.13
2019-02-25T10:51:24.872Z,103688.13
2019-02-25T10:53:58.106Z,103686.83
2019-02-25T10:56:34.608Z,103680.74
2019-02-25T10:59:08.211Z,103679.95
2019-02-25T11:01:43.299Z,103684.27
2019-02-25T11:04:17.523Z,103686.92
2019-02-25T11:06:51.424Z,103683.86
2019-02-25T11:09:24.657Z,103692.13
2019-02-25T11:12:00.167Z,103690.41
2019-02-25T11:14:35.420Z,103683.48
2019-02-25T11:17:08.077Z,103682.19
2019-02-25T11:19:41.311Z,103674.88
2019-02-25T11:22:16.302Z,103681.02
2019-02-25T11:24:51.339Z,103674.05
2019-02-25T11:27:24.622Z,103677.58
2019-02-25T11:29:57.848Z,103676.27
2019-02-25T11:32:31.090Z,103675.39
2019-02-25T11:35:06.301Z,103681.05
2019-02-25T11:37:40.291Z,103684.91
2019-02-25T11:40:14.462Z,103684.08
2019-02-25T11:42:47.700Z,103680.59
2019-02-25T11:45:20.934Z,103670.56
2019-02-25T11:47:54.207Z,103670.14
2019-02-25T11:50:28.510Z,103660.58
2019-02-25T11:53:01.757Z,103656.25
2019-02-25T11:55:34.994Z,103644.97
2019-02-25T11:58:08.236Z,103641.53
2019-02-25T12:00:41.481Z,103640.57
2019-02-25T12:03:15.701Z,103640.98
2019-02-25T12:05:48.924Z,103631.42
2019-02-25T12:08:22.157Z,103624.04
2019-02-25T12:10:55.381Z,103620.55
2019-02-25T12:13:28.632Z,103623.11
2019-02-25T12:16:01.863Z,103616.14
2019-02-25T12:18:35.108Z,103618.75
2019-02-25T12:21:08.337Z,103611.78
2019-02-25T12:23:41.580Z,103616.02
2019-02-25T12:26:14.809Z,103615.60
2019-02-25T12:28:48.059Z,103607.29
2019-02-25T12:31:21.301Z,103608.12
2019-02-25T12:33:54.543Z,103608.96
2019-02-25T12:36:27.765Z,103598.52
2019-02-25T12:39:01.007Z,103603.17
2019-02-25T12:41:35.863Z,103602.75
2019-02-25T12:44:09.116Z,103601.88
2019-02-25T12:46:42.342Z,103600.94
2019-02-25T12:49:16.566Z,103605.67
2019-02-25T12:51:49.796Z,103600.43
2019-02-25T12:54:23.043Z,103595.65
2019-02-25T12:56:56.279Z,103597.28
2019-02-25T12:59:29.523Z,103598.95
2019-02-25T13:02:02.753Z,103601.98
2019-02-25T13:04:36.008Z,103596.31
2019-02-25T13:07:09.237Z,103594.97
2019-02-25T13:09:42.472Z,103590.10
2019-02-25T13:12:15.990Z,103588.34
2019-02-25T13:14:49.226Z,103584.91
2019-02-25T13:17:22.468Z,103584.86
2019-02-25T13:19:55.706Z,103578.31
2019-02-25T13:22:28.932Z,103583.05
2019-02-25T13:25:03.271Z,103575.66
2019-02-25T13:27:37.116Z,103575.20
2019-02-25T13:30:12.680Z,103579.52
2019-02-25T13:32:45.919Z,103570.75
2019-02-25T13:35:19.170Z,103568.58
2019-02-25T13:37:52.400Z,103569.36
2019-02-25T13:40:25.649Z,103568.53
2019-02-25T13:42:59.062Z,103578.41
2019-02-25T13:45:32.302Z,103575.34
2019-02-25T13:48:05.535Z,103567.97
2019-02-25T13:50:38.818Z,103562.27
2019-02-25T13:53:12.090Z,103561.34
2019-02-25T13:55:45.681Z,103563.48
2019-02-25T13:58:18.904Z,103560.00
2019-02-25T14:00:52.153Z,103560.00
2019-02-25T14:03:25.380Z,103556.94
2019-02-25T14:05:58.616Z,103558.66
2019-02-25T14:08:32.124Z,103556.89
2019-02-25T14:11:05.371Z,103553.45
2019-02-25T14:13:38.601Z,103551.61
2019-02-25T14:16:11.861Z,103554.29
2019-02-25T14:18:45.088Z,103549.02
2019-02-25T14:21:18.334Z,103555.46
2019-02-25T14:23:51.564Z,103549.33
2019-02-25T14:26:24.797Z,103553.70
2019-02-25T14:28:58.019Z,103551.52
2019-02-25T14:31:31.254Z,103554.53
2019-02-25T14:34:04.481Z,103549.33
2019-02-25T14:36:37.712Z,103549.28
2019-02-25T14:39:17.183Z,103552.30
2019-02-25T14:41:54.411Z,103553.59
2019-02-25T14:44:29.792Z,103552.63
2019-02-25T14:47:01.111Z,103550.88
2019-02-25T14:49:37.661Z,103556.91
2019-02-25T14:52:10.148Z,103549.11
2019-02-25T14:54:45.698Z,103546.05
2019-02-25T14:57:20.350Z,103545.13
2019-02-25T14:59:53.236Z,103546.84
2019-02-25T15:02:26.478Z,103545.50
2019-02-25T15:04:59.707Z,103545.50
2019-02-25T15:07:32.950Z,103542.90
2019-02-25T15:10:08.738Z,103541.14
2019-02-25T15:12:43.531Z,103538.45
2019-02-25T15:15:19.006Z,103547.08
2019-02-25T15:17:52.699Z,103541.01
2019-02-25T15:20:28.786Z,103544.02
2019-02-25T15:23:01.254Z,103539.66
2019-02-25T15:25:37.269Z,103536.13
2019-02-25T15:28:11.502Z,103542.21
2019-02-25T15:30:44.352Z,103553.02
2019-02-25T15:33:17.599Z,103552.97
2019-02-25T15:35:50.820Z,103546.86
2019-02-25T15:38:24.070Z,103547.22
2019-02-25T15:40:58.047Z,103542.39
2019-02-25T15:43:32.245Z,103545.88
2019-02-25T15:46:05.481Z,103547.59
2019-02-25T15:48:39.798Z,103562.30
